createdAt,value
2019-05-02T00:01:26.500Z,90.80
2019-05-02T00:03:55.285Z,90.90
2019-05-02T00:06:24.117Z,91.00
2019-05-02T00:08:52.758Z,91.10
2019-05-02T00:11:21.713Z,91.10
2019-05-02T00:13:50.501Z,91.20
2019-05-02T00:16:19.347Z,91.30
2019-05-02T00:18:48.157Z,91.30
2019-05-02T00:21:17.273Z,91.40
2019-05-02T00:23:45.845Z,91.50
2019-05-02T00:26:14.573Z,91.50
2019-05-02T00:28:48.066Z,91.60
2019-05-02T00:31:13.415Z,91.70
2019-05-02T00:33:42.096Z,91.70
2019-05-02T00:36:10.746Z,91.90
2019-05-02T00:38:39.904Z,91.90
2019-05-02T00:41:08.587Z,91.90
2019-05-02T00:43:37.300Z,92.00
2019-05-02T00:46:06.014Z,92.10
2019-05-02T00:48:39.175Z,92.20
2019-05-02T00:51:07.839Z,92.20
2019-05-02T00:53:36.477Z,92.20
2019-05-02T00:56:08.981Z,92.30
2019-05-02T00:58:35.359Z,92.30
2019-05-02T01:01:29.671Z,92.50
2019-05-02T01:04:02.030Z,92.50
2019-05-02T01:06:30.632Z,92.60
2019-05-02T01:08:59.265Z,92.60
2019-05-02T01:11:28.208Z,92.60
2019-05-02T01:13:58.163Z,92.70
2019-05-02T01:16:26.739Z,92.70
2019-05-02T01:18:55.308Z,92.70
2019-05-02T01:21:23.985Z,92.70
2019-05-02T01:23:52.553Z,92.80
2019-05-02T01:26:24.179Z,92.80
2019-05-02T01:29:12.399Z,92.80
2019-05-02T01:31:45.493Z,92.80
2019-05-02T01:34:17.952Z,92.80
2019-05-02T01:36:47.607Z,92.90
2019-05-02T01:39:16.176Z,92.90
2019-05-02T01:41:44.813Z,92.90
2019-05-02T01:44:13.417Z,92.90
2019-05-02T01:46:42.047Z,92.90
2019-05-02T01:49:10.705Z,92.90
2019-05-02T01:51:42.114Z,93.00
2019-05-02T01:54:11.262Z,93.10
2019-05-02T01:56:39.937Z,93.10
2019-05-02T01:59:08.545Z,93.10
2019-05-02T02:01:37.114Z,93.20
2019-05-02T02:04:05.830Z,93.20
2019-05-02T02:06:34.508Z,93.20
2019-05-02T02:09:08.218Z,93.20
2019-05-02T02:11:35.867Z,93.20
2019-05-02T02:14:07.380Z,93.20
2019-05-02T02:16:39.178Z,93.20
2019-05-02T02:19:19.228Z,93.20
2019-05-02T02:21:49.430Z,93.20
2019-05-02T02:24:26.393Z,93.20
2019-05-02T02:26:55.090Z,93.30
2019-05-02T02:29:23.684Z,93.40
2019-05-02T02:31:52.265Z,93.40
2019-05-02T02:34:29.435Z,93.40
2019-05-02T02:36:51.548Z,93.50
2019-05-02T02:39:20.176Z,93.50
2019-05-02T02:41:51.963Z,93.50
2019-05-02T02:44:20.659Z,93.50
2019-05-02T02:46:51.089Z,93.50
2019-05-02T02:49:22.099Z,93.60
2019-05-02T02:51:49.899Z,93.60
2019-05-02T02:54:18.538Z,93.60
2019-05-02T02:56:47.106Z,93.60
2019-05-02T02:59:19.551Z,93.50
2019-05-02T03:01:46.119Z,93.50
2019-05-02T03:04:14.683Z,93.50
2019-05-02T03:06:45.082Z,93.40
2019-05-02T03:09:13.824Z,93.40
2019-05-02T03:11:50.222Z,93.40
2019-05-02T03:14:23.214Z,93.40
2019-05-02T03:16:51.855Z,93.40
2019-05-02T03:19:21.757Z,93.40
2019-05-02T03:21:54.603Z,93.50
2019-05-02T03:24:25.249Z,93.50
2019-05-02T03:26:55.135Z,93.50
2019-05-02T03:29:24.314Z,93.50
2019-05-02T03:32:12.326Z,93.50
2019-05-02T03:34:23.351Z,93.50
2019-05-02T03:36:52.355Z,93.40
2019-05-02T03:39:21.632Z,93.40
2019-05-02T03:41:55.657Z,93.40
2019-05-02T03:44:26.045Z,93.40
2019-05-02T03:46:54.261Z,93.40
2019-05-02T03:49:22.555Z,93.50
2019-05-02T03:51:55.883Z,93.50
2019-05-02T03:54:21.642Z,93.50
2019-05-02T03:56:51.143Z,93.60
2019-05-02T03:59:20.281Z,93.60
2019-05-02T04:01:49.019Z,93.60
2019-05-02T04:04:20.501Z,93.70
2019-05-02T04:06:48.024Z,93.70
2019-05-02T04:09:38.756Z,93.70
2019-05-02T04:12:05.107Z,93.70
2019-05-02T04:14:38.037Z,93.70
2019-05-02T04:17:04.228Z,93.80
2019-05-02T04:19:35.024Z,93.90
2019-05-02T04:22:08.408Z,93.80
2019-05-02T04:24:34.002Z,93.80
2019-05-02T04:27:02.652Z,93.80
2019-05-02T04:29:33.156Z,93.80
2019-05-02T04:32:04.518Z,93.70
2019-05-02T04:34:42.215Z,93.70
2019-05-02T04:37:10.871Z,94.00
2019-05-02T04:39:39.585Z,93.80
2019-05-02T04:42:15.987Z,93.80
2019-05-02T04:44:44.353Z,93.70
2019-05-02T04:47:16.664Z,93.70
2019-05-02T04:49:39.430Z,93.70
2019-05-02T04:52:12.348Z,93.70
2019-05-02T04:54:39.554Z,93.70
2019-05-02T04:57:08.703Z,93.80
2019-05-02T04:59:39.563Z,93.80
2019-05-02T05:02:09.121Z,93.90
2019-05-02T05:04:41.997Z,93.80
2019-05-02T05:07:09.263Z,93.90
2019-05-02T05:09:39.826Z,93.80
2019-05-02T05:12:08.602Z,93.80
2019-05-02T05:14:41.210Z,93.90
2019-05-02T05:17:08.015Z,93.80
2019-05-02T05:19:37.339Z,93.80
2019-05-02T05:22:08.792Z,93.80
2019-05-02T05:24:42.188Z,93.80
2019-05-02T05:27:08.308Z,93.80
2019-05-02T05:29:37.490Z,93.80
2019-05-02T05:32:09.929Z,93.70
2019-05-02T05:34:37.979Z,93.70
2019-05-02T05:37:09.367Z,93.80
2019-05-02T05:39:38.111Z,93.80
2019-05-02T05:42:08.381Z,93.80
2019-05-02T05:44:37.517Z,93.80
2019-05-02T05:47:07.471Z,93.80
2019-05-02T05:49:37.542Z,93.80
2019-05-02T05:52:08.066Z,93.70
2019-05-02T05:54:38.352Z,93.80
2019-05-02T05:57:07.576Z,93.80
2019-05-02T05:59:37.971Z,93.80
2019-05-02T06:02:13.058Z,93.80
2019-05-02T06:04:38.703Z,93.70
2019-05-02T06:07:07.563Z,93.70
2019-05-02T06:09:36.245Z,93.70
2019-05-02T06:12:04.966Z,93.60
2019-05-02T06:14:34.671Z,93.60
2019-05-02T06:17:04.418Z,93.50
2019-05-02T06:19:33.221Z,93.60
2019-05-02T06:22:03.344Z,93.60
2019-05-02T06:24:33.909Z,93.60
2019-05-02T06:27:02.181Z,93.80
2019-05-02T06:29:30.759Z,93.80
2019-05-02T06:32:03.126Z,93.80
2019-05-02T06:34:31.834Z,93.80
2019-05-02T06:37:01.196Z,93.80
2019-05-02T06:39:31.869Z,93.90
2019-05-02T06:42:00.293Z,93.90
2019-05-02T06:44:28.899Z,94.00
2019-05-02T06:46:59.130Z,93.70
2019-05-02T06:49:27.906Z,93.80
2019-05-02T06:51:57.674Z,93.90
2019-05-02T06:54:26.551Z,93.80
2019-05-02T06:56:55.213Z,94.00
2019-05-02T06:59:23.781Z,93.90
2019-05-02T07:01:56.909Z,94.20
2019-05-02T07:04:23.383Z,93.70
2019-05-02T07:06:58.734Z,94.00
2019-05-02T07:09:23.516Z,93.70
2019-05-02T07:11:57.410Z,93.60
2019-05-02T07:14:23.531Z,93.70
2019-05-02T07:16:57.219Z,93.40
2019-05-02T07:19:31.129Z,93.00
2019-05-02T07:22:04.078Z,93.10
2019-05-02T07:24:30.935Z,92.90
2019-05-02T07:27:02.236Z,92.90
2019-05-02T07:29:30.058Z,93.10
2019-05-02T07:31:58.726Z,93.20
2019-05-02T07:34:27.543Z,92.70
2019-05-02T07:36:56.127Z,92.80
2019-05-02T07:39:24.872Z,92.60
2019-05-02T07:41:53.630Z,93.10
2019-05-02T07:44:22.271Z,93.00
2019-05-02T07:46:52.188Z,92.50
2019-05-02T07:49:21.082Z,92.20
2019-05-02T07:51:52.191Z,92.40
2019-05-02T07:54:24.712Z,92.10
2019-05-02T07:56:53.376Z,91.90
2019-05-02T07:59:23.311Z,91.70
2019-05-02T08:01:51.003Z,90.50
2019-05-02T08:04:19.681Z,90.50
2019-05-02T08:06:48.366Z,90.00
2019-05-02T08:09:16.939Z,90.00
2019-05-02T08:11:45.667Z,89.40
2019-05-02T08:14:14.288Z,89.10
2019-05-02T08:16:42.861Z,90.10
2019-05-02T08:19:11.426Z,89.70
2019-05-02T08:21:40.111Z,89.30
2019-05-02T08:24:08.688Z,90.30
2019-05-02T08:26:58.302Z,89.90
2019-05-02T08:29:28.871Z,90.00
2019-05-02T08:31:55.980Z,90.30
2019-05-02T08:34:31.979Z,90.60
2019-05-02T08:37:03.361Z,90.40
2019-05-02T08:39:33.997Z,90.50
2019-05-02T08:42:02.271Z,90.90
2019-05-02T08:44:30.912Z,90.90
2019-05-02T08:46:59.666Z,90.50
2019-05-02T08:49:28.234Z,90.60
2019-05-02T08:51:56.796Z,90.40
2019-05-02T08:54:28.044Z,90.30
2019-05-02T08:56:59.180Z,90.50
2019-05-02T08:59:26.458Z,90.30
2019-05-02T09:01:55.094Z,90.00
2019-05-02T09:04:24.174Z,90.00
2019-05-02T09:06:58.716Z,89.60
2019-05-02T09:09:27.991Z,90.00
2019-05-02T09:12:04.903Z,89.60
2019-05-02T09:14:24.909Z,90.20
2019-05-02T09:16:53.501Z,90.20
2019-05-02T09:19:26.285Z,89.30
2019-05-02T09:21:52.701Z,88.40
2019-05-02T09:24:23.949Z,86.10
2019-05-02T09:26:52.199Z,85.90
2019-05-02T09:29:22.294Z,86.30
2019-05-02T09:31:52.741Z,86.80
2019-05-02T09:34:22.732Z,84.60
2019-05-02T09:36:53.012Z,86.70
2019-05-02T09:39:22.725Z,87.30
2019-05-02T09:41:52.619Z,87.80
2019-05-02T09:44:22.345Z,87.90
2019-05-02T09:46:53.080Z,87.60
2019-05-02T09:49:22.036Z,87.40
2019-05-02T09:51:59.277Z,85.80
2019-05-02T09:54:23.102Z,85.10
2019-05-02T09:56:52.410Z,84.70
2019-05-02T09:59:27.722Z,84.70
2019-05-02T10:01:53.024Z,82.80
2019-05-02T10:04:22.426Z,83.20
2019-05-02T10:06:52.484Z,83.20
2019-05-02T10:09:24.095Z,81.40
2019-05-02T10:11:52.528Z,79.90
2019-05-02T10:14:22.589Z,80.30
2019-05-02T10:16:52.926Z,81.50
2019-05-02T10:19:25.491Z,79.90
2019-05-02T10:21:56.249Z,78.70
2019-05-02T10:24:22.623Z,75.90
2019-05-02T10:26:55.213Z,80.30
2019-05-02T10:29:28.082Z,79.50
2019-05-02T10:31:52.664Z,78.70
2019-05-02T10:34:22.645Z,77.40
2019-05-02T10:36:58.693Z,77.20
2019-05-02T10:39:23.475Z,75.10
2019-05-02T10:41:52.703Z,77.50
2019-05-02T10:44:22.555Z,76.00
2019-05-02T10:46:55.988Z,74.30
2019-05-02T10:49:26.278Z,71.70
2019-05-02T10:51:55.290Z,74.00
2019-05-02T10:54:27.933Z,74.10
2019-05-02T10:56:54.259Z,73.20
2019-05-02T10:59:22.945Z,73.50
2019-05-02T11:02:00.079Z,74.20
2019-05-02T11:04:29.344Z,71.50
2019-05-02T11:06:58.061Z,72.10
2019-05-02T11:09:26.644Z,74.60
2019-05-02T11:11:55.264Z,73.80
2019-05-02T11:14:42.213Z,74.40
2019-05-02T11:17:17.692Z,72.90
2019-05-02T11:19:45.246Z,72.50
2019-05-02T11:22:13.834Z,73.10
2019-05-02T11:24:42.418Z,74.50
2019-05-02T11:27:12.777Z,75.50
2019-05-02T11:29:42.567Z,76.10
2019-05-02T11:32:12.820Z,75.90
2019-05-02T11:34:42.073Z,75.60
2019-05-02T11:37:12.119Z,75.80
2019-05-02T11:39:46.191Z,76.10
2019-05-02T11:42:12.499Z,75.00
2019-05-02T11:44:41.851Z,75.20
2019-05-02T11:47:12.488Z,75.50
2019-05-02T11:49:42.520Z,76.10
2019-05-02T11:52:11.851Z,78.10
2019-05-02T11:54:44.762Z,78.20
2019-05-02T11:57:11.700Z,77.00
2019-05-02T11:59:42.413Z,75.60
2019-05-02T12:02:17.405Z,76.20
2019-05-02T12:04:42.690Z,77.30
2019-05-02T12:07:12.686Z,78.10
2019-05-02T12:09:45.691Z,79.70
2019-05-02T12:12:12.365Z,80.50
2019-05-02T12:14:41.880Z,79.60
2019-05-02T12:17:12.125Z,80.30
2019-05-02T12:19:42.589Z,79.00
2019-05-02T12:22:12.766Z,76.80
2019-05-02T12:24:45.315Z,76.30
2019-05-02T12:27:12.082Z,77.00
2019-05-02T12:29:42.366Z,75.60
2019-05-02T12:32:11.993Z,76.10
2019-05-02T12:34:42.044Z,75.40
2019-05-02T12:37:12.491Z,74.30
2019-05-02T12:39:42.542Z,75.90
2019-05-02T12:42:12.715Z,72.90
2019-05-02T12:44:42.624Z,74.50
2019-05-02T12:47:11.918Z,73.50
2019-05-02T12:49:42.284Z,73.80
2019-05-02T12:52:12.806Z,74.00
2019-05-02T12:54:41.671Z,71.70
2019-05-02T12:57:12.355Z,69.00
2019-05-02T12:59:41.677Z,67.10
2019-05-02T13:02:12.341Z,65.30
2019-05-02T13:04:42.574Z,64.20
2019-05-02T13:07:12.744Z,64.30
2019-05-02T13:09:42.045Z,65.30
2019-05-02T13:12:15.835Z,66.40
2019-05-02T13:14:44.421Z,67.20
2019-05-02T13:17:13.554Z,68.00
2019-05-02T13:19:55.526Z,67.50
2019-05-02T13:22:29.107Z,68.90
2019-05-02T13:24:59.510Z,69.60
2019-05-02T13:27:33.691Z,68.30
2019-05-02T13:29:58.775Z,69.30
2019-05-02T13:32:38.132Z,69.20
2019-05-02T13:35:16.368Z,68.40
2019-05-02T13:37:46.522Z,68.30
2019-05-02T13:40:17.313Z,68.60
2019-05-02T13:42:45.963Z,68.40
2019-05-02T13:45:19.212Z,68.30
2019-05-02T13:47:47.802Z,69.90
2019-05-02T13:50:16.713Z,70.50
2019-05-02T13:52:52.896Z,70.70
2019-05-02T13:55:17.412Z,70.90
2019-05-02T13:57:47.041Z,70.40
2019-05-02T14:00:18.175Z,72.40
2019-05-02T14:02:46.874Z,72.70
2019-05-02T14:05:16.701Z,71.50
2019-05-02T14:08:03.514Z,70.80
2019-05-02T14:10:39.203Z,70.50
2019-05-02T14:13:04.243Z,70.90
2019-05-02T14:15:34.536Z,70.80
2019-05-02T14:18:03.176Z,71.70
2019-05-02T14:20:33.098Z,71.70
2019-05-02T14:23:02.279Z,71.60
2019-05-02T14:25:32.142Z,72.10
2019-05-02T14:28:02.846Z,72.70
2019-05-02T14:30:38.778Z,72.20
2019-05-02T14:33:03.337Z,72.40
2019-05-02T14:35:38.424Z,72.40
2019-05-02T14:38:07.895Z,73.20
2019-05-02T14:40:39.481Z,74.50
2019-05-02T14:43:08.191Z,75.50
2019-05-02T14:45:37.086Z,76.00
2019-05-02T14:48:18.488Z,76.00
2019-05-02T14:50:40.689Z,75.90
2019-05-02T14:53:06.729Z,75.90
2019-05-02T14:55:38.265Z,73.60
2019-05-02T14:58:07.067Z,73.30
2019-05-02T15:00:39.589Z,72.50
2019-05-02T15:03:07.676Z,72.70
2019-05-02T15:05:36.258Z,73.00
2019-05-02T15:08:06.808Z,73.20
2019-05-02T15:10:49.009Z,72.70
2019-05-02T15:13:05.437Z,71.80
2019-05-02T15:15:40.752Z,73.30
2019-05-02T15:18:07.848Z,73.10
2019-05-02T15:20:38.721Z,72.40
2019-05-02T15:23:07.098Z,72.60
2019-05-02T15:25:35.346Z,72.40
2019-05-02T15:28:04.083Z,72.70
2019-05-02T15:30:37.285Z,72.50
2019-05-02T15:33:04.884Z,71.90
2019-05-02T15:35:42.541Z,72.00
2019-05-02T15:38:18.388Z,71.50
2019-05-02T15:40:49.704Z,71.20
2019-05-02T15:43:12.617Z,71.50
2019-05-02T15:45:45.382Z,72.10
2019-05-02T15:48:21.529Z,72.60
2019-05-02T15:50:51.587Z,72.70
2019-05-02T15:53:16.420Z,72.40
2019-05-02T15:55:45.490Z,72.10
2019-05-02T15:58:23.751Z,71.70
2019-05-02T16:01:01.755Z,71.70
2019-05-02T16:03:45.857Z,71.20
2019-05-02T16:06:16.565Z,70.40
2019-05-02T16:08:48.514Z,68.20
2019-05-02T16:11:18.046Z,68.00
2019-05-02T16:13:52.534Z,67.60
2019-05-02T16:16:21.945Z,68.80
2019-05-02T16:18:52.770Z,68.50
2019-05-02T16:21:30.629Z,68.00
2019-05-02T16:24:19.602Z,67.80
2019-05-02T16:26:52.960Z,67.50
2019-05-02T16:29:26.877Z,66.60
2019-05-02T16:31:54.971Z,67.10
2019-05-02T16:34:27.283Z,66.80
2019-05-02T16:36:56.645Z,67.40
2019-05-02T16:39:25.312Z,68.40
2019-05-02T16:41:53.897Z,68.60
2019-05-02T16:44:22.479Z,68.10
2019-05-02T16:46:52.140Z,68.30
2019-05-02T16:49:22.794Z,68.80
2019-05-02T16:51:52.935Z,68.30
2019-05-02T16:54:22.364Z,67.60
2019-05-02T16:56:52.140Z,67.00
2019-05-02T16:59:21.588Z,66.60
2019-05-02T17:01:54.401Z,67.10
2019-05-02T17:04:22.344Z,68.10
2019-05-02T17:06:56.716Z,69.50
2019-05-02T17:09:28.800Z,70.10
2019-05-02T17:11:57.192Z,70.40
2019-05-02T17:14:25.844Z,70.90
2019-05-02T17:16:55.978Z,72.30
2019-05-02T17:19:26.171Z,72.20
2019-05-02T17:21:56.525Z,72.70
2019-05-02T17:24:26.234Z,72.90
2019-05-02T17:26:54.971Z,73.00
2019-05-02T17:29:23.585Z,72.40
2019-05-02T17:31:55.434Z,72.80
2019-05-02T17:34:29.934Z,72.70
2019-05-02T17:36:52.645Z,73.30
2019-05-02T17:39:22.279Z,72.70
2019-05-02T17:41:52.419Z,73.00
2019-05-02T17:44:22.693Z,72.90
2019-05-02T17:46:58.353Z,72.80
2019-05-02T17:49:23.924Z,73.00
2019-05-02T17:52:11.334Z,72.90
2019-05-02T17:54:42.240Z,72.80
2019-05-02T17:57:11.840Z,72.90
2019-05-02T17:59:42.170Z,73.10
2019-05-02T18:02:12.465Z,72.10
2019-05-02T18:04:41.951Z,71.90
2019-05-02T18:07:11.720Z,72.30
2019-05-02T18:09:41.887Z,71.20
2019-05-02T18:12:14.444Z,71.50
2019-05-02T18:14:42.132Z,69.70
2019-05-02T18:17:12.621Z,70.70
2019-05-02T18:19:42.585Z,70.30
2019-05-02T18:22:23.463Z,71.20
2019-05-02T18:24:44.800Z,71.50
2019-05-02T18:27:12.896Z,71.80
2019-05-02T18:29:45.396Z,71.80
2019-05-02T18:32:12.792Z,71.40
2019-05-02T18:34:41.859Z,71.20
2019-05-02T18:37:10.777Z,71.10
2019-05-02T18:39:44.791Z,70.50
2019-05-02T18:42:11.817Z,70.30
2019-05-02T18:44:41.936Z,70.80
2019-05-02T18:47:12.610Z,70.00
2019-05-02T18:49:41.912Z,70.40
2019-05-02T18:52:11.727Z,70.50
2019-05-02T18:54:43.973Z,70.60
2019-05-02T18:57:11.924Z,70.20
2019-05-02T18:59:42.554Z,70.30
2019-05-02T19:02:11.025Z,70.20
2019-05-02T19:04:39.932Z,70.00
2019-05-02T19:07:12.963Z,70.10
2019-05-02T19:09:50.874Z,69.90
2019-05-02T19:12:19.454Z,70.00
2019-05-02T19:14:41.877Z,69.90
2019-05-02T19:17:12.098Z,70.20
2019-05-02T19:19:41.880Z,70.50
2019-05-02T19:22:13.410Z,70.20
2019-05-02T19:24:41.932Z,70.00
2019-05-02T19:27:12.834Z,69.70
2019-05-02T19:29:42.445Z,69.00
2019-05-02T19:32:12.224Z,68.50
2019-05-02T19:34:41.777Z,68.30
2019-05-02T19:37:12.138Z,68.70
2019-05-02T19:39:47.227Z,68.40
2019-05-02T19:42:17.009Z,68.80
2019-05-02T19:44:43.025Z,67.70
2019-05-02T19:47:13.661Z,68.20
2019-05-02T19:49:54.258Z,68.20
2019-05-02T19:52:22.508Z,68.60
2019-05-02T19:54:51.900Z,68.50
2019-05-02T19:57:24.853Z,68.80
2019-05-02T20:00:02.700Z,70.80
2019-05-02T20:02:30.058Z,73.70
2019-05-02T20:04:58.606Z,77.00
2019-05-02T20:07:27.511Z,78.80
2019-05-02T20:09:56.349Z,80.50
2019-05-02T20:12:25.594Z,81.80
2019-05-02T20:14:54.331Z,83.40
2019-05-02T20:17:24.045Z,85.10
2019-05-02T20:19:57.694Z,86.10
2019-05-02T20:22:26.008Z,87.30
2019-05-02T20:25:00.338Z,88.70
2019-05-02T20:27:28.605Z,90.00
2019-05-02T20:29:57.925Z,90.40
2019-05-02T20:32:26.550Z,90.90
2019-05-02T20:34:55.315Z,91.30
2019-05-02T20:37:24.178Z,91.60
2019-05-02T20:39:52.955Z,91.90
2019-05-02T20:42:25.067Z,92.00
2019-05-02T20:44:54.866Z,91.90
2019-05-02T20:47:26.713Z,92.10
2019-05-02T20:49:55.469Z,92.70
2019-05-02T20:52:27.582Z,92.40
2019-05-02T20:54:56.638Z,92.20
2019-05-02T20:57:25.484Z,92.30
2019-05-02T20:59:54.333Z,92.30
2019-05-02T21:02:22.943Z,92.30
2019-05-02T21:04:52.108Z,92.50
2019-05-02T21:07:28.833Z,92.80
2019-05-02T21:09:59.153Z,92.90
2019-05-02T21:12:28.224Z,93.40
2019-05-02T21:14:56.944Z,93.80
2019-05-02T21:17:25.711Z,94.00
2019-05-02T21:19:54.715Z,94.50
2019-05-02T21:22:26.513Z,94.70
2019-05-02T21:24:55.238Z,94.90
2019-05-02T21:27:25.102Z,95.20
2019-05-02T21:29:54.036Z,95.50
2019-05-02T21:32:23.057Z,95.70
2019-05-02T21:34:52.135Z,95.90
2019-05-02T21:37:22.628Z,96.20
2019-05-02T21:39:52.090Z,96.30
2019-05-02T21:42:22.588Z,96.50
2019-05-02T21:44:51.775Z,96.60
2019-05-02T21:47:22.546Z,96.90
2019-05-02T21:49:56.222Z,97.20
2019-05-02T21:52:26.406Z,97.30
2019-05-02T21:55:14.904Z,97.40
2019-05-02T21:57:43.862Z,97.40
2019-05-02T22:00:17.337Z,97.60
2019-05-02T22:02:46.483Z,97.70
2019-05-02T22:05:15.291Z,98.20
2019-05-02T22:07:44.456Z,98.30
2019-05-02T22:10:13.459Z,98.40
2019-05-02T22:12:42.664Z,98.70
2019-05-02T22:15:12.731Z,99.10
2019-05-02T22:17:41.858Z,99.50
2019-05-02T22:20:12.366Z,99.90
2019-05-02T22:22:42.634Z,99.90
2019-05-02T22:25:12.004Z,99.90
2019-05-02T22:27:40.688Z,99.90
2019-05-02T22:30:09.657Z,99.90
2019-05-02T22:32:38.216Z,99.90
2019-05-02T22:35:07.642Z,99.90
2019-05-02T22:37:38.073Z,99.90
2019-05-02T22:40:10.072Z,99.90
2019-05-02T22:42:41.738Z,99.90
2019-05-02T22:45:12.540Z,99.90
2019-05-02T22:47:42.594Z,99.90
2019-05-02T22:50:13.915Z,99.90
2019-05-02T22:52:42.458Z,99.90
2019-05-02T22:55:11.965Z,99.90
2019-05-02T22:57:42.069Z,99.90
2019-05-02T23:00:11.412Z,99.90
2019-05-02T23:02:41.865Z,99.90
2019-05-02T23:05:12.407Z,99.90
2019-05-02T23:07:41.932Z,99.90
2019-05-02T23:10:12.649Z,99.90
2019-05-02T23:12:42.377Z,99.90
2019-05-02T23:15:12.599Z,99.90
2019-05-02T23:17:42.765Z,99.90
2019-05-02T23:20:12.809Z,99.90
2019-05-02T23:22:41.872Z,99.90
2019-05-02T23:25:18.589Z,99.90
2019-05-02T23:27:48.806Z,99.90
2019-05-02T23:30:19.704Z,99.90
2019-05-02T23:32:48.273Z,99.90
2019-05-02T23:35:17.120Z,99.90
2019-05-02T23:37:45.649Z,99.90
2019-05-02T23:40:14.999Z,99.90
2019-05-02T23:42:43.868Z,99.90
2019-05-02T23:45:12.783Z,99.90
2019-05-02T23:47:42.164Z,99.90
2019-05-02T23:50:12.187Z,99.90
2019-05-02T23:52:40.880Z,99.90
2019-05-02T23:55:12.045Z,99.90
2019-05-02T23:57:42.018Z,99.90
